sensor_id;sensor_type;location;lat;lon;timestamp;temperature;humidity
10411;DHT22;5251;52.112;8.606;2022-12-18T00:02:11;-4.50;95.30
10411;DHT22;5251;52.112;8.606;2022-12-18T00:04:37;-4.50;95.30
10411;DHT22;5251;52.112;8.606;2022-12-18T00:07:02;-4.50;95.30
10411;DHT22;5251;52.112;8.606;2022-12-18T00:09:28;-4.50;95.40
10411;DHT22;5251;52.112;8.606;2022-12-18T00:11:54;-4.50;95.30
10411;DHT22;5251;52.112;8.606;2022-12-18T00:14:19;-4.50;95.40
10411;DHT22;5251;52.112;8.606;2022-12-18T00:16:45;-4.50;95.40
10411;DHT22;5251;52.112;8.606;2022-12-18T00:19:12;-4.50;95.40
10411;DHT22;5251;52.112;8.606;2022-12-18T00:21:42;-4.50;95.40
10411;DHT22;5251;52.112;8.606;2022-12-18T00:24:08;-4.50;95.40
10411;DHT22;5251;52.112;8.606;2022-12-18T00:26:36;-4.50;95.40
10411;DHT22;5251;52.112;8.606;2022-12-18T00:29:12;-4.50;95.40
10411;DHT22;5251;52.112;8.606;2022-12-18T00:31:39;-4.50;95.50
10411;DHT22;5251;52.112;8.606;2022-12-18T00:34:05;-4.50;95.50
10411;DHT22;5251;52.112;8.606;2022-12-18T00:36:33;-4.50;95.50
10411;DHT22;5251;52.112;8.606;2022-12-18T00:39:00;-4.50;95.50
10411;DHT22;5251;52.112;8.606;2022-12-18T00:41:27;-4.50;95.50
10411;DHT22;5251;52.112;8.606;2022-12-18T00:44:13;-4.50;95.40
10411;DHT22;5251;52.112;8.606;2022-12-18T00:46:39;-4.50;95.40
10411;DHT22;5251;52.112;8.606;2022-12-18T00:49:04;-4.50;95.40
10411;DHT22;5251;52.112;8.606;2022-12-18T00:51:30;-4.50;95.40
10411;DHT22;5251;52.112;8.606;2022-12-18T00:53:56;-4.50;95.40
10411;DHT22;5251;52.112;8.606;2022-12-18T00:56:22;-4.50;95.40
10411;DHT22;5251;52.112;8.606;2022-12-18T00:58:47;-4.50;95.40
10411;DHT22;5251;52.112;8.606;2022-12-18T01:01:13;-4.50;95.30
10411;DHT22;5251;52.112;8.606;2022-12-18T01:03:39;-4.50;95.30
10411;DHT22;5251;52.112;8.606;2022-12-18T01:06:06;-4.50;95.30
10411;DHT22;5251;52.112;8.606;2022-12-18T01:08:32;-4.50;95.30
10411;DHT22;5251;52.112;8.606;2022-12-18T01:10:58;-4.50;95.20
10411;DHT22;5251;52.112;8.606;2022-12-18T01:13:24;-4.50;95.20
10411;DHT22;5251;52.112;8.606;2022-12-18T01:15:50;-4.50;95.20
10411;DHT22;5251;52.112;8.606;2022-12-18T01:18:16;-4.50;95.20
10411;DHT22;5251;52.112;8.606;2022-12-18T01:20:41;-4.50;95.20
10411;DHT22;5251;52.112;8.606;2022-12-18T01:23:07;-4.50;95.10
10411;DHT22;5251;52.112;8.606;2022-12-18T01:25:35;-4.50;95.10
10411;DHT22;5251;52.112;8.606;2022-12-18T01:28:00;-4.60;95.10
10411;DHT22;5251;52.112;8.606;2022-12-18T01:30:27;-4.50;95.10
10411;DHT22;5251;52.112;8.606;2022-12-18T01:32:53;-4.50;95.10
10411;DHT22;5251;52.112;8.606;2022-12-18T01:35:18;-4.60;95.10
10411;DHT22;5251;52.112;8.606;2022-12-18T01:37:44;-4.60;95.10
10411;DHT22;5251;52.112;8.606;2022-12-18T01:40:10;-4.60;95.10
10411;DHT22;5251;52.112;8.606;2022-12-18T01:42:36;-4.60;95.10
10411;DHT22;5251;52.112;8.606;2022-12-18T01:45:06;-4.60;95.10
10411;DHT22;5251;52.112;8.606;2022-12-18T01:47:41;-4.60;95.10
10411;DHT22;5251;52.112;8.606;2022-12-18T01:52:43;-4.60;95.10
10411;DHT22;5251;52.112;8.606;2022-12-18T01:55:10;-4.60;95.10
10411;DHT22;5251;52.112;8.606;2022-12-18T01:57:38;-4.60;95.10
10411;DHT22;5251;52.112;8.606;2022-12-18T02:00:13;-4.70;95.00
10411;DHT22;5251;52.112;8.606;2022-12-18T02:02:41;-4.70;95.00
10411;DHT22;5251;52.112;8.606;2022-12-18T02:05:08;-4.60;95.00
10411;DHT22;5251;52.112;8.606;2022-12-18T02:07:46;-4.70;94.90
10411;DHT22;5251;52.112;8.606;2022-12-18T02:13:19;-4.70;95.00
10411;DHT22;5251;52.112;8.606;2022-12-18T02:18:28;-4.70;95.00
10411;DHT22;5251;52.112;8.606;2022-12-18T02:24:44;-4.70;95.00
10411;DHT22;5251;52.112;8.606;2022-12-18T02:26:58;-4.70;95.00
10411;DHT22;5251;52.112;8.606;2022-12-18T02:29:29;-4.70;95.00
10411;DHT22;5251;52.112;8.606;2022-12-18T02:32:02;-4.70;95.00
10411;DHT22;5251;52.112;8.606;2022-12-18T02:34:32;-4.70;95.00
10411;DHT22;5251;52.112;8.606;2022-12-18T02:37:01;-4.70;95.00
10411;DHT22;5251;52.112;8.606;2022-12-18T02:39:29;-4.70;95.00
10411;DHT22;5251;52.112;8.606;2022-12-18T02:41:57;-4.70;95.00
10411;DHT22;5251;52.112;8.606;2022-12-18T02:44:23;-4.70;94.90
10411;DHT22;5251;52.112;8.606;2022-12-18T02:46:52;-4.70;94.80
10411;DHT22;5251;52.112;8.606;2022-12-18T02:57:55;-4.80;94.70
10411;DHT22;5251;52.112;8.606;2022-12-18T03:00:24;-4.80;94.80
10411;DHT22;5251;52.112;8.606;2022-12-18T03:05:45;-4.90;94.80
10411;DHT22;5251;52.112;8.606;2022-12-18T03:08:20;-4.80;94.80
10411;DHT22;5251;52.112;8.606;2022-12-18T03:10:55;-4.80;94.80
10411;DHT22;5251;52.112;8.606;2022-12-18T03:13:41;-4.90;94.80
10411;DHT22;5251;52.112;8.606;2022-12-18T03:16:11;-4.80;94.90
10411;DHT22;5251;52.112;8.606;2022-12-18T03:19:06;-4.80;95.00
10411;DHT22;5251;52.112;8.606;2022-12-18T03:21:38;-4.90;94.90
10411;DHT22;5251;52.112;8.606;2022-12-18T03:24:08;-4.80;95.00
10411;DHT22;5251;52.112;8.606;2022-12-18T03:26:35;-4.80;94.90
10411;DHT22;5251;52.112;8.606;2022-12-18T03:29:09;-4.80;95.00
10411;DHT22;5251;52.112;8.606;2022-12-18T03:31:40;-4.90;94.90
10411;DHT22;5251;52.112;8.606;2022-12-18T03:34:12;-4.80;94.90
10411;DHT22;5251;52.112;8.606;2022-12-18T03:36:40;-4.80;94.90
10411;DHT22;5251;52.112;8.606;2022-12-18T03:39:05;-4.90;94.90
10411;DHT22;5251;52.112;8.606;2022-12-18T03:50:16;-4.80;94.90
10411;DHT22;5251;52.112;8.606;2022-12-18T03:55:25;-4.90;94.80
10411;DHT22;5251;52.112;8.606;2022-12-18T03:57:53;-4.90;94.70
10411;DHT22;5251;52.112;8.606;2022-12-18T04:00:20;-4.80;94.80
10411;DHT22;5251;52.112;8.606;2022-12-18T04:02:50;-4.90;94.70
10411;DHT22;5251;52.112;8.606;2022-12-18T04:05:17;-4.90;94.70
10411;DHT22;5251;52.112;8.606;2022-12-18T04:07:45;-4.90;94.80
10411;DHT22;5251;52.112;8.606;2022-12-18T04:10:12;-4.90;94.80
10411;DHT22;5251;52.112;8.606;2022-12-18T04:12:38;-4.90;94.80
10411;DHT22;5251;52.112;8.606;2022-12-18T04:15:05;-4.90;94.80
10411;DHT22;5251;52.112;8.606;2022-12-18T04:17:31;-4.90;94.80
10411;DHT22;5251;52.112;8.606;2022-12-18T04:19:57;-4.90;94.90
10411;DHT22;5251;52.112;8.606;2022-12-18T04:22:22;-4.90;94.90
10411;DHT22;5251;52.112;8.606;2022-12-18T04:24:48;-4.90;94.90
10411;DHT22;5251;52.112;8.606;2022-12-18T04:27:13;-4.90;94.90
10411;DHT22;5251;52.112;8.606;2022-12-18T04:29:39;-4.90;94.90
10411;DHT22;5251;52.112;8.606;2022-12-18T04:32:05;-4.90;94.90
10411;DHT22;5251;52.112;8.606;2022-12-18T04:34:30;-4.90;94.90
10411;DHT22;5251;52.112;8.606;2022-12-18T04:36:56;-4.90;94.90
10411;DHT22;5251;52.112;8.606;2022-12-18T04:39:21;-4.90;94.90
10411;DHT22;5251;52.112;8.606;2022-12-18T04:41:47;-4.90;95.00
10411;DHT22;5251;52.112;8.606;2022-12-18T04:44:13;-4.80;95.00
10411;DHT22;5251;52.112;8.606;2022-12-18T04:46:38;-4.80;95.10
10411;DHT22;5251;52.112;8.606;2022-12-18T04:49:04;-4.80;95.00
10411;DHT22;5251;52.112;8.606;2022-12-18T04:51:30;-4.80;95.10
10411;DHT22;5251;52.112;8.606;2022-12-18T04:53:55;-4.80;95.10
10411;DHT22;5251;52.112;8.606;2022-12-18T04:56:21;-4.80;95.10
10411;DHT22;5251;52.112;8.606;2022-12-18T04:58:47;-4.80;95.10
10411;DHT22;5251;52.112;8.606;2022-12-18T05:01:14;-4.80;95.10
10411;DHT22;5251;52.112;8.606;2022-12-18T05:03:40;-4.70;95.20
10411;DHT22;5251;52.112;8.606;2022-12-18T05:06:06;-4.80;95.10
10411;DHT22;5251;52.112;8.606;2022-12-18T05:08:32;-4.80;95.10
10411;DHT22;5251;52.112;8.606;2022-12-18T05:11:07;-4.80;95.00
10411;DHT22;5251;52.112;8.606;2022-12-18T05:13:33;-4.80;95.00
10411;DHT22;5251;52.112;8.606;2022-12-18T05:15:59;-4.70;95.00
10411;DHT22;5251;52.112;8.606;2022-12-18T05:18:25;-4.80;95.00
10411;DHT22;5251;52.112;8.606;2022-12-18T05:20:52;-4.80;95.00
10411;DHT22;5251;52.112;8.606;2022-12-18T05:23:19;-4.70;95.00
10411;DHT22;5251;52.112;8.606;2022-12-18T05:25:55;-4.70;95.00
10411;DHT22;5251;52.112;8.606;2022-12-18T05:28:22;-4.80;95.00
10411;DHT22;5251;52.112;8.606;2022-12-18T05:30:49;-4.80;94.90
10411;DHT22;5251;52.112;8.606;2022-12-18T05:33:16;-4.70;95.00
10411;DHT22;5251;52.112;8.606;2022-12-18T05:35:41;-4.80;94.90
10411;DHT22;5251;52.112;8.606;2022-12-18T05:38:07;-4.80;94.90
10411;DHT22;5251;52.112;8.606;2022-12-18T05:40:33;-4.80;94.90
10411;DHT22;5251;52.112;8.606;2022-12-18T05:42:58;-4.80;94.90
10411;DHT22;5251;52.112;8.606;2022-12-18T05:45:24;-4.80;94.80
10411;DHT22;5251;52.112;8.606;2022-12-18T05:47:49;-4.90;94.80
10411;DHT22;5251;52.112;8.606;2022-12-18T05:50:15;-4.90;94.80
10411;DHT22;5251;52.112;8.606;2022-12-18T05:52:40;-4.90;94.80
10411;DHT22;5251;52.112;8.606;2022-12-18T05:55:06;-4.90;94.80
10411;DHT22;5251;52.112;8.606;2022-12-18T05:57:32;-4.90;94.80
10411;DHT22;5251;52.112;8.606;2022-12-18T05:59:57;-4.90;94.80
10411;DHT22;5251;52.112;8.606;2022-12-18T06:02:23;-4.90;94.80
10411;DHT22;5251;52.112;8.606;2022-12-18T06:04:49;-4.90;94.80
10411;DHT22;5251;52.112;8.606;2022-12-18T06:07:14;-4.90;94.80
10411;DHT22;5251;52.112;8.606;2022-12-18T06:09:40;-4.90;94.80
10411;DHT22;5251;52.112;8.606;2022-12-18T06:12:06;-4.90;94.80
10411;DHT22;5251;52.112;8.606;2022-12-18T06:14:31;-4.90;94.80
10411;DHT22;5251;52.112;8.606;2022-12-18T06:16:57;-5.00;94.80
10411;DHT22;5251;52.112;8.606;2022-12-18T06:19:22;-5.00;94.80
10411;DHT22;5251;52.112;8.606;2022-12-18T06:21:49;-4.90;94.90
10411;DHT22;5251;52.112;8.606;2022-12-18T06:24:15;-5.00;94.80
10411;DHT22;5251;52.112;8.606;2022-12-18T06:26:41;-4.90;94.90
10411;DHT22;5251;52.112;8.606;2022-12-18T06:29:07;-4.90;94.90
10411;DHT22;5251;52.112;8.606;2022-12-18T06:31:32;-4.90;94.80
10411;DHT22;5251;52.112;8.606;2022-12-18T06:33:58;-4.90;94.80
10411;DHT22;5251;52.112;8.606;2022-12-18T06:36:23;-4.90;94.80
10411;DHT22;5251;52.112;8.606;2022-12-18T06:38:49;-4.90;94.80
10411;DHT22;5251;52.112;8.606;2022-12-18T06:41:17;-4.90;94.70
10411;DHT22;5251;52.112;8.606;2022-12-18T06:43:43;-5.00;94.60
10411;DHT22;5251;52.112;8.606;2022-12-18T06:46:09;-4.90;94.60
10411;DHT22;5251;52.112;8.606;2022-12-18T06:48:35;-4.90;94.60
10411;DHT22;5251;52.112;8.606;2022-12-18T06:51:01;-5.00;94.60
10411;DHT22;5251;52.112;8.606;2022-12-18T06:53:27;-5.00;94.60
10411;DHT22;5251;52.112;8.606;2022-12-18T06:56:03;-5.00;94.60
10411;DHT22;5251;52.112;8.606;2022-12-18T06:58:29;-5.00;94.60
10411;DHT22;5251;52.112;8.606;2022-12-18T07:01:00;-5.00;94.60
10411;DHT22;5251;52.112;8.606;2022-12-18T07:03:26;-5.00;94.60
10411;DHT22;5251;52.112;8.606;2022-12-18T07:05:52;-5.00;94.70
10411;DHT22;5251;52.112;8.606;2022-12-18T07:08:17;-5.00;94.70
10411;DHT22;5251;52.112;8.606;2022-12-18T07:10:43;-5.00;94.70
10411;DHT22;5251;52.112;8.606;2022-12-18T07:13:09;-5.00;94.80
10411;DHT22;5251;52.112;8.606;2022-12-18T07:15:35;-5.00;94.80
10411;DHT22;5251;52.112;8.606;2022-12-18T07:18:01;-5.00;94.80
10411;DHT22;5251;52.112;8.606;2022-12-18T07:20:26;-5.00;94.80
10411;DHT22;5251;52.112;8.606;2022-12-18T07:22:52;-5.00;94.80
10411;DHT22;5251;52.112;8.606;2022-12-18T07:25:17;-5.00;94.80
10411;DHT22;5251;52.112;8.606;2022-12-18T07:27:43;-5.00;94.90
10411;DHT22;5251;52.112;8.606;2022-12-18T07:30:09;-5.00;94.90
10411;DHT22;5251;52.112;8.606;2022-12-18T07:32:35;-5.00;94.90
10411;DHT22;5251;52.112;8.606;2022-12-18T07:35:00;-5.00;94.90
10411;DHT22;5251;52.112;8.606;2022-12-18T07:37:26;-5.00;94.90
10411;DHT22;5251;52.112;8.606;2022-12-18T07:39:51;-5.00;94.90
10411;DHT22;5251;52.112;8.606;2022-12-18T07:42:17;-4.90;95.00
10411;DHT22;5251;52.112;8.606;2022-12-18T07:45:01;-4.90;95.10
10411;DHT22;5251;52.112;8.606;2022-12-18T07:47:28;-4.90;95.10
10411;DHT22;5251;52.112;8.606;2022-12-18T07:49:53;-4.90;95.20
10411;DHT22;5251;52.112;8.606;2022-12-18T07:52:19;-4.80;95.30
10411;DHT22;5251;52.112;8.606;2022-12-18T07:54:45;-4.80;95.30
10411;DHT22;5251;52.112;8.606;2022-12-18T07:57:10;-4.80;95.40
10411;DHT22;5251;52.112;8.606;2022-12-18T07:59:36;-4.80;95.40
10411;DHT22;5251;52.112;8.606;2022-12-18T08:02:02;-4.70;95.40
10411;DHT22;5251;52.112;8.606;2022-12-18T08:04:28;-4.70;95.40
10411;DHT22;5251;52.112;8.606;2022-12-18T08:06:54;-4.70;95.50
10411;DHT22;5251;52.112;8.606;2022-12-18T08:09:19;-4.70;95.50
10411;DHT22;5251;52.112;8.606;2022-12-18T08:11:45;-4.60;95.50
10411;DHT22;5251;52.112;8.606;2022-12-18T08:14:10;-4.60;95.60
10411;DHT22;5251;52.112;8.606;2022-12-18T08:16:36;-4.60;95.60
10411;DHT22;5251;52.112;8.606;2022-12-18T08:19:01;-4.60;95.60
10411;DHT22;5251;52.112;8.606;2022-12-18T08:21:29;-4.50;95.80
10411;DHT22;5251;52.112;8.606;2022-12-18T08:23:57;-4.50;95.80
10411;DHT22;5251;52.112;8.606;2022-12-18T08:26:24;-4.40;96.00
10411;DHT22;5251;52.112;8.606;2022-12-18T08:28:51;-4.40;96.10
10411;DHT22;5251;52.112;8.606;2022-12-18T08:31:18;-4.30;96.20
10411;DHT22;5251;52.112;8.606;2022-12-18T08:33:43;-4.20;96.30
10411;DHT22;5251;52.112;8.606;2022-12-18T08:36:10;-4.20;96.40
10411;DHT22;5251;52.112;8.606;2022-12-18T08:38:36;-4.10;96.40
10411;DHT22;5251;52.112;8.606;2022-12-18T08:41:03;-4.00;96.50
10411;DHT22;5251;52.112;8.606;2022-12-18T08:43:29;-4.00;96.60
10411;DHT22;5251;52.112;8.606;2022-12-18T08:46:18;-3.90;96.70
10411;DHT22;5251;52.112;8.606;2022-12-18T08:48:44;-3.80;96.70
10411;DHT22;5251;52.112;8.606;2022-12-18T08:51:09;-3.70;97.10
10411;DHT22;5251;52.112;8.606;2022-12-18T08:53:36;-3.70;96.80
10411;DHT22;5251;52.112;8.606;2022-12-18T08:56:02;-3.60;96.80
10411;DHT22;5251;52.112;8.606;2022-12-18T08:58:28;-3.60;96.90
10411;DHT22;5251;52.112;8.606;2022-12-18T09:00:53;-3.50;96.90
10411;DHT22;5251;52.112;8.606;2022-12-18T09:03:19;-3.40;97.00
10411;DHT22;5251;52.112;8.606;2022-12-18T09:05:47;-3.40;97.00
10411;DHT22;5251;52.112;8.606;2022-12-18T09:08:13;-3.30;97.10
10411;DHT22;5251;52.112;8.606;2022-12-18T09:10:43;-3.30;97.10
10411;DHT22;5251;52.112;8.606;2022-12-18T09:13:11;-3.20;97.10
10411;DHT22;5251;52.112;8.606;2022-12-18T09:16:02;-3.10;97.20
10411;DHT22;5251;52.112;8.606;2022-12-18T09:18:28;-3.00;97.40
10411;DHT22;5251;52.112;8.606;2022-12-18T09:20:54;-3.00;97.40
10411;DHT22;5251;52.112;8.606;2022-12-18T09:23:20;-2.90;97.50
10411;DHT22;5251;52.112;8.606;2022-12-18T09:25:46;-2.80;97.50
10411;DHT22;5251;52.112;8.606;2022-12-18T09:28:18;-2.70;97.50
10411;DHT22;5251;52.112;8.606;2022-12-18T09:30:48;-2.60;97.60
10411;DHT22;5251;52.112;8.606;2022-12-18T09:33:15;-2.50;97.60
10411;DHT22;5251;52.112;8.606;2022-12-18T09:35:42;-2.40;97.70
10411;DHT22;5251;52.112;8.606;2022-12-18T09:38:12;-2.30;97.70
10411;DHT22;5251;52.112;8.606;2022-12-18T09:40:59;-2.20;97.70
10411;DHT22;5251;52.112;8.606;2022-12-18T09:43:35;-2.10;97.80
10411;DHT22;5251;52.112;8.606;2022-12-18T09:46:07;-2.00;97.80
10411;DHT22;5251;52.112;8.606;2022-12-18T09:48:41;-2.00;97.70
10411;DHT22;5251;52.112;8.606;2022-12-18T09:51:24;-1.90;97.80
10411;DHT22;5251;52.112;8.606;2022-12-18T09:53:58;-1.80;97.70
10411;DHT22;5251;52.112;8.606;2022-12-18T09:56:28;-1.70;97.70
10411;DHT22;5251;52.112;8.606;2022-12-18T09:59:04;-1.60;97.80
10411;DHT22;5251;52.112;8.606;2022-12-18T10:01:32;-1.50;97.70
10411;DHT22;5251;52.112;8.606;2022-12-18T10:03:58;-1.50;97.70
10411;DHT22;5251;52.112;8.606;2022-12-18T10:06:52;-1.40;97.70
10411;DHT22;5251;52.112;8.606;2022-12-18T10:12:22;-1.30;97.60
10411;DHT22;5251;52.112;8.606;2022-12-18T10:17:45;-1.20;97.60
10411;DHT22;5251;52.112;8.606;2022-12-18T10:23:33;-1.00;97.50
10411;DHT22;5251;52.112;8.606;2022-12-18T10:26:08;-1.00;97.50
10411;DHT22;5251;52.112;8.606;2022-12-18T10:28:39;-0.90;97.50
10411;DHT22;5251;52.112;8.606;2022-12-18T10:31:06;-0.90;97.50
10411;DHT22;5251;52.112;8.606;2022-12-18T10:33:33;-0.80;97.50
10411;DHT22;5251;52.112;8.606;2022-12-18T10:35:59;-0.80;97.50
10411;DHT22;5251;52.112;8.606;2022-12-18T10:38:28;-0.70;97.60
10411;DHT22;5251;52.112;8.606;2022-12-18T10:43:41;-0.60;97.60
10411;DHT22;5251;52.112;8.606;2022-12-18T10:51:39;-0.40;97.60
10411;DHT22;5251;52.112;8.606;2022-12-18T10:54:13;-0.30;97.70
10411;DHT22;5251;52.112;8.606;2022-12-18T10:56:39;-0.20;97.60
10411;DHT22;5251;52.112;8.606;2022-12-18T10:59:10;-0.20;97.60
10411;DHT22;5251;52.112;8.606;2022-12-18T11:01:57;-0.10;97.80
10411;DHT22;5251;52.112;8.606;2022-12-18T11:04:28;0.00;97.60
10411;DHT22;5251;52.112;8.606;2022-12-18T11:07:01;0.10;97.50
10411;DHT22;5251;52.112;8.606;2022-12-18T11:09:39;0.10;97.40
10411;DHT22;5251;52.112;8.606;2022-12-18T11:12:15;0.20;97.40
10411;DHT22;5251;52.112;8.606;2022-12-18T11:14:48;0.20;97.30
10411;DHT22;5251;52.112;8.606;2022-12-18T11:17:35;0.30;97.30
10411;DHT22;5251;52.112;8.606;2022-12-18T11:20:05;0.40;97.10
10411;DHT22;5251;52.112;8.606;2022-12-18T11:22:34;0.40;97.40
10411;DHT22;5251;52.112;8.606;2022-12-18T11:27:37;0.40;96.70
10411;DHT22;5251;52.112;8.606;2022-12-18T11:30:33;0.40;96.60
10411;DHT22;5251;52.112;8.606;2022-12-18T11:40:42;0.50;96.30
10411;DHT22;5251;52.112;8.606;2022-12-18T11:43:16;0.50;96.20
10411;DHT22;5251;52.112;8.606;2022-12-18T11:45:54;0.50;96.10
10411;DHT22;5251;52.112;8.606;2022-12-18T11:48:27;0.50;96.10
10411;DHT22;5251;52.112;8.606;2022-12-18T11:50:57;0.50;96.00
10411;DHT22;5251;52.112;8.606;2022-12-18T11:53:26;0.60;96.10
10411;DHT22;5251;52.112;8.606;2022-12-18T11:56:29;0.60;96.10
10411;DHT22;5251;52.112;8.606;2022-12-18T12:10:50;0.90;96.00
10411;DHT22;5251;52.112;8.606;2022-12-18T12:21:53;1.10;95.90
10411;DHT22;5251;52.112;8.606;2022-12-18T12:27:26;1.20;95.80
10411;DHT22;5251;52.112;8.606;2022-12-18T12:38:13;1.40;95.60
10411;DHT22;5251;52.112;8.606;2022-12-18T12:41:03;1.40;95.60
10411;DHT22;5251;52.112;8.606;2022-12-18T12:43:39;1.50;95.60
10411;DHT22;5251;52.112;8.606;2022-12-18T12:46:11;1.50;95.50
10411;DHT22;5251;52.112;8.606;2022-12-18T12:48:53;1.50;95.30
10411;DHT22;5251;52.112;8.606;2022-12-18T12:51:29;1.50;95.10
10411;DHT22;5251;52.112;8.606;2022-12-18T12:53:57;1.50;95.10
10411;DHT22;5251;52.112;8.606;2022-12-18T12:56:46;1.60;95.10
10411;DHT22;5251;52.112;8.606;2022-12-18T13:02:10;1.60;94.90
10411;DHT22;5251;52.112;8.606;2022-12-18T13:07:32;1.60;94.60
10411;DHT22;5251;52.112;8.606;2022-12-18T13:13:10;1.60;94.60
10411;DHT22;5251;52.112;8.606;2022-12-18T13:15:44;1.70;94.70
10411;DHT22;5251;52.112;8.606;2022-12-18T13:31:00;1.70;94.50
10411;DHT22;5251;52.112;8.606;2022-12-18T13:41:36;1.70;94.40
10411;DHT22;5251;52.112;8.606;2022-12-18T13:46:50;1.70;94.30
10411;DHT22;5251;52.112;8.606;2022-12-18T13:49:38;1.70;94.20
10411;DHT22;5251;52.112;8.606;2022-12-18T13:52:37;1.80;94.00
10411;DHT22;5251;52.112;8.606;2022-12-18T13:55:10;1.80;94.00
10411;DHT22;5251;52.112;8.606;2022-12-18T13:57:40;1.80;94.00
10411;DHT22;5251;52.112;8.606;2022-12-18T14:00:27;1.80;94.00
10411;DHT22;5251;52.112;8.606;2022-12-18T14:02:54;1.70;94.00
10411;DHT22;5251;52.112;8.606;2022-12-18T14:07:48;1.70;93.80
10411;DHT22;5251;52.112;8.606;2022-12-18T14:10:15;1.70;93.80
10411;DHT22;5251;52.112;8.606;2022-12-18T14:12:45;1.80;93.80
10411;DHT22;5251;52.112;8.606;2022-12-18T14:17:55;1.70;93.60
10411;DHT22;5251;52.112;8.606;2022-12-18T14:20:22;1.80;93.70
10411;DHT22;5251;52.112;8.606;2022-12-18T14:22:49;1.70;93.50
10411;DHT22;5251;52.112;8.606;2022-12-18T14:25:18;1.70;93.60
10411;DHT22;5251;52.112;8.606;2022-12-18T14:27:47;1.70;93.60
10411;DHT22;5251;52.112;8.606;2022-12-18T14:33:04;1.70;93.50
10411;DHT22;5251;52.112;8.606;2022-12-18T14:35:32;1.70;93.50
10411;DHT22;5251;52.112;8.606;2022-12-18T14:38:18;1.70;93.30
10411;DHT22;5251;52.112;8.606;2022-12-18T14:40:45;1.70;93.30
10411;DHT22;5251;52.112;8.606;2022-12-18T14:43:11;1.70;93.20
10411;DHT22;5251;52.112;8.606;2022-12-18T14:45:43;1.70;93.20
10411;DHT22;5251;52.112;8.606;2022-12-18T14:48:14;1.70;93.00
10411;DHT22;5251;52.112;8.606;2022-12-18T14:50:40;1.70;93.00
10411;DHT22;5251;52.112;8.606;2022-12-18T14:53:37;1.70;92.90
10411;DHT22;5251;52.112;8.606;2022-12-18T14:56:14;1.60;93.00
10411;DHT22;5251;52.112;8.606;2022-12-18T14:58:55;1.60;93.40
10411;DHT22;5251;52.112;8.606;2022-12-18T15:01:36;1.60;93.00
10411;DHT22;5251;52.112;8.606;2022-12-18T15:04:04;1.60;93.00
10411;DHT22;5251;52.112;8.606;2022-12-18T15:06:37;1.60;93.00
10411;DHT22;5251;52.112;8.606;2022-12-18T15:09:23;1.60;93.00
10411;DHT22;5251;52.112;8.606;2022-12-18T15:11:58;1.60;93.00
10411;DHT22;5251;52.112;8.606;2022-12-18T15:16:57;1.60;93.00
10411;DHT22;5251;52.112;8.606;2022-12-18T15:19:40;1.60;92.80
10411;DHT22;5251;52.112;8.606;2022-12-18T15:22:39;1.60;92.80
10411;DHT22;5251;52.112;8.606;2022-12-18T15:25:55;1.50;93.20
10411;DHT22;5251;52.112;8.606;2022-12-18T15:28:20;1.50;92.80
10411;DHT22;5251;52.112;8.606;2022-12-18T15:31:17;1.60;92.80
10411;DHT22;5251;52.112;8.606;2022-12-18T15:34:01;1.50;92.70
10411;DHT22;5251;52.112;8.606;2022-12-18T15:36:28;1.60;92.80
10411;DHT22;5251;52.112;8.606;2022-12-18T15:38:56;1.50;92.80
10411;DHT22;5251;52.112;8.606;2022-12-18T15:41:23;1.50;92.90
10411;DHT22;5251;52.112;8.606;2022-12-18T15:43:50;1.50;92.80
10411;DHT22;5251;52.112;8.606;2022-12-18T15:46:19;1.50;93.00
10411;DHT22;5251;52.112;8.606;2022-12-18T15:48:46;1.60;93.00
10411;DHT22;5251;52.112;8.606;2022-12-18T15:51:21;1.60;93.00
10411;DHT22;5251;52.112;8.606;2022-12-18T15:53:50;1.60;92.90
10411;DHT22;5251;52.112;8.606;2022-12-18T15:56:16;1.60;92.90
10411;DHT22;5251;52.112;8.606;2022-12-18T15:59:01;1.60;92.90
10411;DHT22;5251;52.112;8.606;2022-12-18T16:01:30;1.60;92.80
10411;DHT22;5251;52.112;8.606;2022-12-18T16:03:56;1.60;92.70
10411;DHT22;5251;52.112;8.606;2022-12-18T16:06:23;1.60;92.80
10411;DHT22;5251;52.112;8.606;2022-12-18T16:08:48;1.60;92.70
10411;DHT22;5251;52.112;8.606;2022-12-18T16:11:29;1.70;92.70
10411;DHT22;5251;52.112;8.606;2022-12-18T16:14:06;1.70;92.70
10411;DHT22;5251;52.112;8.606;2022-12-18T16:16:31;1.70;92.70
10411;DHT22;5251;52.112;8.606;2022-12-18T16:18:57;1.70;92.70
10411;DHT22;5251;52.112;8.606;2022-12-18T16:21:22;1.70;92.80
10411;DHT22;5251;52.112;8.606;2022-12-18T16:23:48;1.70;92.70
10411;DHT22;5251;52.112;8.606;2022-12-18T16:26:13;1.80;92.70
10411;DHT22;5251;52.112;8.606;2022-12-18T16:28:39;1.80;92.70
10411;DHT22;5251;52.112;8.606;2022-12-18T16:31:05;1.80;92.60
10411;DHT22;5251;52.112;8.606;2022-12-18T16:33:30;1.80;92.70
10411;DHT22;5251;52.112;8.606;2022-12-18T16:35:56;1.80;93.10
10411;DHT22;5251;52.112;8.606;2022-12-18T16:38:21;1.90;92.70
10411;DHT22;5251;52.112;8.606;2022-12-18T16:40:47;1.80;92.60
10411;DHT22;5251;52.112;8.606;2022-12-18T16:43:31;1.90;92.50
10411;DHT22;5251;52.112;8.606;2022-12-18T16:45:58;1.90;92.50
10411;DHT22;5251;52.112;8.606;2022-12-18T16:48:24;1.90;92.40
10411;DHT22;5251;52.112;8.606;2022-12-18T16:50:50;1.90;92.30
10411;DHT22;5251;52.112;8.606;2022-12-18T16:53:22;1.90;92.30
10411;DHT22;5251;52.112;8.606;2022-12-18T16:55:54;1.90;92.30
10411;DHT22;5251;52.112;8.606;2022-12-18T16:58:20;1.90;92.40
10411;DHT22;5251;52.112;8.606;2022-12-18T17:00:46;1.90;92.30
10411;DHT22;5251;52.112;8.606;2022-12-18T17:03:14;2.00;92.20
10411;DHT22;5251;52.112;8.606;2022-12-18T17:05:40;2.00;92.20
10411;DHT22;5251;52.112;8.606;2022-12-18T17:08:05;2.00;92.20
10411;DHT22;5251;52.112;8.606;2022-12-18T17:10:33;2.00;92.20
10411;DHT22;5251;52.112;8.606;2022-12-18T17:12:59;2.00;92.10
10411;DHT22;5251;52.112;8.606;2022-12-18T17:15:25;2.00;92.00
10411;DHT22;5251;52.112;8.606;2022-12-18T17:17:51;2.00;92.10
10411;DHT22;5251;52.112;8.606;2022-12-18T17:20:16;2.00;92.10
10411;DHT22;5251;52.112;8.606;2022-12-18T17:22:42;2.00;91.80
10411;DHT22;5251;52.112;8.606;2022-12-18T17:25:07;2.10;92.00
10411;DHT22;5251;52.112;8.606;2022-12-18T17:27:33;2.00;91.80
10411;DHT22;5251;52.112;8.606;2022-12-18T17:29:59;2.10;91.70
10411;DHT22;5251;52.112;8.606;2022-12-18T17:32:24;2.10;91.60
10411;DHT22;5251;52.112;8.606;2022-12-18T17:34:50;2.10;91.70
10411;DHT22;5251;52.112;8.606;2022-12-18T17:37:16;2.10;91.60
10411;DHT22;5251;52.112;8.606;2022-12-18T17:39:41;2.20;91.80
10411;DHT22;5251;52.112;8.606;2022-12-18T17:42:07;2.20;91.70
10411;DHT22;5251;52.112;8.606;2022-12-18T17:44:35;2.20;91.60
10411;DHT22;5251;52.112;8.606;2022-12-18T17:47:01;2.20;91.60
10411;DHT22;5251;52.112;8.606;2022-12-18T17:49:26;2.20;91.50
10411;DHT22;5251;52.112;8.606;2022-12-18T17:51:52;2.20;91.30
10411;DHT22;5251;52.112;8.606;2022-12-18T17:54:18;2.20;91.20
10411;DHT22;5251;52.112;8.606;2022-12-18T17:56:44;2.30;91.20
10411;DHT22;5251;52.112;8.606;2022-12-18T17:59:10;2.30;91.20
10411;DHT22;5251;52.112;8.606;2022-12-18T18:01:36;2.30;91.10
10411;DHT22;5251;52.112;8.606;2022-12-18T18:04:03;2.30;91.10
10411;DHT22;5251;52.112;8.606;2022-12-18T18:06:28;2.40;91.10
10411;DHT22;5251;52.112;8.606;2022-12-18T18:08:54;2.40;91.00
10411;DHT22;5251;52.112;8.606;2022-12-18T18:11:22;2.40;91.00
10411;DHT22;5251;52.112;8.606;2022-12-18T18:14:12;2.40;91.00
10411;DHT22;5251;52.112;8.606;2022-12-18T18:16:43;2.40;91.00
10411;DHT22;5251;52.112;8.606;2022-12-18T18:19:14;2.50;91.00
10411;DHT22;5251;52.112;8.606;2022-12-18T18:21:42;2.50;91.10
10411;DHT22;5251;52.112;8.606;2022-12-18T18:24:09;2.50;91.00